Aviation Digital Data Service (ADDS)

Output produced by METARs form (1827 UTC 22 November 2017)
found at http://www.aviationweather.gov/adds/metars/
 
GFLL 221700Z 24005KT 8000 HZ BKN013 FEW027CB 29/24 Q1008 RMK-NE/SE
TAF GFLL 221600Z 2218/2324 24008KT 9999 BKN013 FEW028CB 
     TEMPO TS BKN012 
     TEMPO 2302/2307 28004KT 9999 BKN013 
     BECMG 2308/2310 12004KT TS BKN013 FEW028CB 
     TEMPO 2314/2319 27010KT SCT014 SCT150